createdAt,value
2019-05-12T06:55:55.785Z,52.53
2019-05-12T06:58:32.134Z,52.25
2019-05-12T07:01:10.284Z,51.82
2019-05-12T07:03:37.163Z,51.36
2019-05-12T07:06:09.283Z,50.80
2019-05-12T07:08:40.202Z,50.46
2019-05-12T07:11:14.306Z,49.79
2019-05-12T07:13:44.859Z,49.21
2019-05-12T07:16:23.121Z,49.02
2019-05-12T07:18:49.813Z,48.86
2019-05-12T07:21:24.070Z,48.08
2019-05-12T07:24:14.236Z,47.98
2019-05-12T07:31:06.261Z,47.08
2019-05-12T07:33:45.848Z,47.20
2019-05-12T07:47:27.217Z,46.36
2019-05-12T07:49:55.267Z,46.36
2019-05-12T07:52:33.741Z,46.67
2019-05-12T07:55:06.511Z,46.36
2019-05-12T07:57:51.722Z,45.70
2019-05-12T08:00:11.326Z,46.01
2019-05-12T08:02:48.010Z,45.43
2019-05-12T08:05:21.433Z,45.69
2019-05-12T08:07:54.297Z,45.85
2019-05-12T08:10:27.147Z,45.54
2019-05-12T08:13:00.782Z,45.48
2019-05-12T08:15:34.348Z,45.88
2019-05-12T08:18:08.085Z,46.37
2019-05-12T08:20:43.557Z,45.05
2019-05-12T08:23:14.867Z,44.79
2019-05-12T08:25:46.186Z,45.49
2019-05-12T08:28:19.295Z,45.95
2019-05-12T08:30:52.224Z,45.69
2019-05-12T08:33:25.135Z,46.49
2019-05-12T08:36:05.558Z,46.72
2019-05-12T08:38:30.621Z,46.94
2019-05-12T08:41:04.084Z,47.30
2019-05-12T08:43:34.587Z,47.35
2019-05-12T08:46:11.732Z,47.56
2019-05-12T08:48:39.673Z,47.65
2019-05-12T08:51:17.002Z,47.73
2019-05-12T08:53:44.053Z,47.96
2019-05-12T08:56:19.444Z,48.09
2019-05-12T08:58:51.411Z,48.07
2019-05-12T09:01:26.520Z,48.22
2019-05-12T09:04:00.343Z,48.04
2019-05-12T09:06:34.318Z,48.08
2019-05-12T09:09:08.075Z,47.99
2019-05-12T09:11:39.311Z,47.92
2019-05-12T09:14:10.487Z,48.03
2019-05-12T09:16:44.015Z,48.31
2019-05-12T09:19:20.506Z,48.52
2019-05-12T09:21:48.178Z,48.55
2019-05-12T09:24:26.942Z,48.94
2019-05-12T09:26:53.859Z,48.71
2019-05-12T09:29:25.414Z,48.98
2019-05-12T09:31:59.279Z,49.04
2019-05-12T09:34:30.115Z,49.29
2019-05-12T09:37:04.029Z,49.63
2019-05-12T09:39:42.767Z,49.40
2019-05-12T09:42:09.551Z,49.48
2019-05-12T09:44:41.400Z,49.51
2019-05-12T09:47:23.548Z,49.40
2019-05-12T09:49:47.213Z,49.34
2019-05-12T09:52:22.264Z,49.67
2019-05-12T09:54:53.483Z,49.56
2019-05-12T09:57:24.789Z,49.76
2019-05-12T09:59:59.506Z,49.52
2019-05-12T10:02:30.152Z,49.32
2019-05-12T10:05:03.719Z,49.43
2019-05-12T10:07:35.563Z,49.55
2019-05-12T10:10:08.025Z,49.36
2019-05-12T10:12:46.331Z,49.54
2019-05-12T10:15:13.691Z,49.09
2019-05-12T10:17:46.266Z,48.68
2019-05-12T10:20:21.470Z,48.71
2019-05-12T10:22:51.134Z,48.60
2019-05-12T10:25:23.271Z,48.79
2019-05-12T10:27:54.977Z,48.52
2019-05-12T10:30:26.064Z,48.11
2019-05-12T10:32:57.264Z,47.72
2019-05-12T10:35:30.480Z,47.19
2019-05-12T10:38:10.464Z,47.74
2019-05-12T10:40:37.231Z,47.76
2019-05-12T10:43:08.243Z,47.90
2019-05-12T10:45:39.380Z,47.87
2019-05-12T10:48:10.432Z,47.10
2019-05-12T10:50:44.311Z,46.76
2019-05-12T10:53:17.976Z,46.38
2019-05-12T10:55:49.128Z,46.17
2019-05-12T10:58:24.431Z,46.20
2019-05-12T11:00:58.870Z,46.56
2019-05-12T11:03:28.965Z,46.83
2019-05-12T11:06:07.286Z,46.91
2019-05-12T11:08:34.013Z,47.27
2019-05-12T11:11:05.107Z,47.50
2019-05-12T11:13:40.335Z,47.40
2019-05-12T11:16:09.009Z,47.33
2019-05-12T11:18:40.069Z,47.16
2019-05-12T11:21:21.561Z,47.17
2019-05-12T11:23:54.923Z,47.19
2019-05-12T11:26:26.009Z,47.12
2019-05-12T11:29:00.060Z,47.08
2019-05-12T11:31:33.562Z,46.97
2019-05-12T11:34:05.082Z,46.77
2019-05-12T11:36:37.301Z,46.56
2019-05-12T11:47:03.707Z,46.96
2019-05-12T11:53:32.244Z,46.32
2019-05-12T12:14:48.408Z,44.34
2019-05-12T12:17:31.107Z,42.23
2019-05-12T12:20:24.169Z,41.63
2019-05-12T12:22:54.084Z,40.83
2019-05-12T12:25:29.905Z,39.63
2019-05-12T12:28:24.301Z,38.79
2019-05-12T12:31:07.721Z,38.51
2019-05-12T12:33:47.139Z,38.42
2019-05-12T12:36:23.666Z,38.80
2019-05-12T12:39:04.173Z,38.76
2019-05-12T12:51:17.321Z,37.80
2019-05-12T12:56:53.460Z,37.78
2019-05-12T13:00:03.421Z,37.71
2019-05-12T13:03:14.569Z,37.67
2019-05-12T13:06:10.559Z,37.58
2019-05-12T13:08:43.837Z,37.79
2019-05-12T13:22:18.922Z,38.63
2019-05-12T13:42:30.318Z,36.70
2019-05-12T13:45:25.874Z,37.04
2019-05-12T13:52:39.875Z,36.67
2019-05-12T13:59:40.076Z,36.95
2019-05-12T14:21:00.302Z,38.08
2019-05-12T14:28:04.465Z,38.58
2019-05-12T14:30:49.639Z,39.26
2019-05-12T14:33:21.370Z,40.16
2019-05-12T14:36:06.276Z,40.36
2019-05-12T14:42:44.009Z,42.31
2019-05-12T14:49:47.049Z,43.85
2019-05-12T14:57:13.819Z,42.31
2019-05-12T15:01:23.682Z,40.24
2019-05-12T15:04:10.268Z,39.51
2019-05-12T15:18:03.309Z,40.08
2019-05-12T15:28:07.873Z,41.03
2019-05-12T15:31:00.456Z,41.53
2019-05-12T15:33:30.646Z,42.16
2019-05-12T15:36:13.650Z,42.78
2019-05-12T15:38:54.488Z,43.28
2019-05-12T15:41:28.603Z,43.58
2019-05-12T15:52:14.286Z,45.01
2019-05-12T15:54:41.736Z,45.41
2019-05-12T15:57:19.471Z,45.76
2019-05-12T16:03:46.559Z,46.00
2019-05-12T16:06:27.144Z,46.64
2019-05-12T16:09:03.966Z,47.24
2019-05-12T16:11:36.303Z,47.21
2019-05-12T16:14:14.473Z,47.28
2019-05-12T16:16:46.815Z,47.75
2019-05-12T16:19:23.466Z,48.27
2019-05-12T16:29:26.034Z,49.23
2019-05-12T16:36:11.446Z,50.13
2019-05-12T16:54:24.028Z,51.28
2019-05-12T16:56:55.248Z,51.37
2019-05-12T17:13:34.005Z,52.18
2019-05-12T17:16:09.421Z,52.16
2019-05-12T17:22:55.309Z,52.37
2019-05-12T17:36:18.002Z,52.43
2019-05-12T17:38:56.172Z,52.61
2019-05-12T17:41:42.743Z,52.77
2019-05-12T17:44:15.253Z,52.89
2019-05-12T17:46:47.341Z,53.04
2019-05-12T17:49:25.555Z,53.12
2019-05-12T17:51:53.342Z,53.25
2019-05-12T17:54:26.522Z,53.35
2019-05-12T17:56:57.796Z,53.52
2019-05-12T17:59:29.463Z,53.48
2019-05-12T18:02:05.938Z,53.58
2019-05-12T18:04:37.010Z,53.58
2019-05-12T18:07:13.190Z,53.48
2019-05-12T18:09:44.199Z,53.69
2019-05-12T18:12:15.430Z,53.67
2019-05-12T18:14:52.019Z,53.66
2019-05-12T18:17:19.325Z,53.70
2019-05-12T18:19:58.999Z,53.76
2019-05-12T18:22:23.637Z,53.83
2019-05-12T18:24:54.785Z,53.83
2019-05-12T18:27:26.026Z,53.86
2019-05-12T18:29:57.164Z,53.98
2019-05-12T18:32:28.308Z,54.00
2019-05-12T18:34:59.509Z,54.20
2019-05-12T18:37:34.408Z,54.41
2019-05-12T18:40:10.626Z,54.35
2019-05-12T18:42:41.722Z,54.29
2019-05-12T18:45:17.744Z,54.49
2019-05-12T18:47:46.864Z,54.47
2019-05-12T18:50:20.702Z,54.56
2019-05-12T18:52:52.470Z,54.67
2019-05-12T18:55:23.706Z,54.88
2019-05-12T18:57:54.992Z,55.05
2019-05-12T19:00:26.672Z,55.12
2019-05-12T19:03:05.159Z,55.14
2019-05-12T19:05:32.550Z,55.52
2019-05-12T19:08:03.855Z,55.56
2019-05-12T19:10:38.536Z,55.65
2019-05-12T19:13:10.626Z,55.93
2019-05-12T19:15:43.961Z,56.12
2019-05-12T19:22:09.981Z,56.51
2019-05-12T19:24:50.007Z,56.76
2019-05-12T19:27:20.764Z,57.17
2019-05-12T19:29:49.615Z,57.45
2019-05-12T19:32:20.750Z,57.47
2019-05-12T19:34:54.460Z,57.72
2019-05-12T19:37:28.634Z,57.96
2019-05-12T19:40:04.039Z,58.21
2019-05-12T19:42:35.532Z,58.35
2019-05-12T19:45:16.328Z,58.33
2019-05-12T20:02:44.687Z,59.11
2019-05-12T20:13:13.641Z,59.79
2019-05-12T20:15:44.513Z,60.24
2019-05-12T20:18:15.639Z,60.23
2019-05-12T20:20:46.686Z,60.39
2019-05-12T20:23:17.788Z,60.55
2019-05-12T20:25:48.844Z,60.72
2019-05-12T20:28:20.783Z,60.75
2019-05-12T20:31:00.939Z,60.79
2019-05-12T20:33:26.239Z,60.86
2019-05-12T20:36:06.527Z,61.07
2019-05-12T20:38:34.280Z,61.11
2019-05-12T20:41:04.980Z,61.23
2019-05-12T20:43:40.748Z,61.15
2019-05-12T20:46:13.044Z,61.31
2019-05-12T20:48:44.609Z,61.34
2019-05-12T20:51:20.122Z,61.60
2019-05-12T20:53:48.607Z,61.56
2019-05-12T20:56:22.100Z,61.74
2019-05-12T20:58:55.527Z,61.84
2019-05-12T21:01:30.197Z,61.88
2019-05-12T21:03:59.411Z,61.89
2019-05-12T21:06:33.147Z,61.98
2019-05-12T21:09:06.399Z,61.96
2019-05-12T21:11:40.749Z,62.27
2019-05-12T21:14:11.816Z,62.33
2019-05-12T21:16:44.899Z,62.34
2019-05-12T21:19:16.777Z,62.74
2019-05-12T21:21:51.101Z,62.72
2019-05-12T21:24:35.930Z,62.87
2019-05-12T21:27:19.704Z,63.13
2019-05-12T21:29:45.308Z,63.05
2019-05-12T21:36:24.462Z,63.52
2019-05-12T21:38:54.230Z,63.36
2019-05-12T21:41:26.967Z,63.72
2019-05-12T21:55:06.248Z,64.09
2019-05-12T21:57:34.553Z,63.88
2019-05-12T22:00:14.825Z,63.71
2019-05-12T22:02:46.601Z,63.83
2019-05-12T22:05:23.619Z,63.75
2019-05-12T22:07:52.252Z,63.68
2019-05-12T22:10:26.746Z,63.74
2019-05-12T22:13:00.564Z,63.87
2019-05-12T22:15:33.644Z,63.81
2019-05-12T22:18:05.163Z,63.82
2019-05-12T22:20:37.212Z,63.77
2019-05-12T22:23:11.891Z,63.71
2019-05-12T22:25:43.548Z,64.00
2019-05-12T22:28:15.758Z,64.25
2019-05-12T22:30:47.398Z,64.26
2019-05-12T22:33:26.021Z,64.53
2019-05-12T22:36:05.097Z,64.52
2019-05-12T22:38:30.827Z,64.43
2019-05-12T22:41:04.426Z,64.41
2019-05-12T22:43:40.789Z,64.67
2019-05-12T22:46:08.758Z,64.78
2019-05-12T23:03:51.247Z,64.13
2019-05-12T23:06:25.077Z,63.74
2019-05-12T23:19:51.362Z,63.20
2019-05-12T23:22:23.487Z,63.05
2019-05-12T23:39:00.473Z,63.59
2019-05-12T23:41:43.706Z,63.53
2019-05-12T23:44:15.134Z,63.47
2019-05-12T23:46:57.909Z,63.70
2019-05-12T23:49:30.799Z,63.49
2019-05-12T23:52:04.126Z,63.60
2019-05-12T23:54:35.577Z,63.63
2019-05-12T23:57:17.365Z,63.58
